createdAt,value
2018-04-10T00:00:18.154Z,17.50
2018-04-10T00:00:51.428Z,17.50
2018-04-10T00:01:24.704Z,17.40
2018-04-10T00:01:57.997Z,17.40
2018-04-10T00:02:31.276Z,17.40
2018-04-10T00:03:04.568Z,17.30
2018-04-10T00:03:37.956Z,17.40
2018-04-10T00:04:11.229Z,17.30
2018-04-10T00:04:45.272Z,17.30
2018-04-10T00:05:18.547Z,17.30
2018-04-10T00:05:51.848Z,17.20
2018-04-10T00:06:25.119Z,17.30
2018-04-10T00:06:58.418Z,17.30
2018-04-10T00:07:32.452Z,17.30
2018-04-10T00:08:05.712Z,17.30
2018-04-10T00:08:39.002Z,17.20
2018-04-10T00:09:12.278Z,17.20
2018-04-10T00:09:45.538Z,17.20
2018-04-10T00:10:19.595Z,17.10
2018-04-10T00:10:52.932Z,17.10
2018-04-10T00:11:26.201Z,17.20
2018-04-10T00:12:00.260Z,17.20
2018-04-10T00:12:33.549Z,17.20
2018-04-10T00:13:06.836Z,17.10
2018-04-10T00:13:40.099Z,17.10
2018-04-10T00:14:13.371Z,17.10
2018-04-10T00:14:47.404Z,17.00
2018-04-10T00:15:20.679Z,17.00
2018-04-10T00:15:53.960Z,17.00
2018-04-10T00:16:27.227Z,17.10
2018-04-10T00:17:00.516Z,17.10
2018-04-10T00:17:33.827Z,17.10
2018-04-10T00:18:07.104Z,17.10
2018-04-10T00:18:41.127Z,17.10
2018-04-10T00:19:14.401Z,17.10
2018-04-10T00:19:47.673Z,17.10
2018-04-10T00:20:20.977Z,17.00
2018-04-10T00:20:54.233Z,17.10
2018-04-10T00:21:27.514Z,17.10
2018-04-10T00:22:00.783Z,17.10
2018-04-10T00:22:34.848Z,17.10
2018-04-10T00:23:08.127Z,17.00
2018-04-10T00:23:41.396Z,17.00
2018-04-10T00:24:14.740Z,17.10
2018-04-10T00:24:48.028Z,17.10
2018-04-10T00:25:21.332Z,17.10
2018-04-10T00:25:54.629Z,17.10
2018-04-10T00:26:27.909Z,17.10
2018-04-10T00:27:02.704Z,17.10
2018-04-10T00:27:35.987Z,17.10
2018-04-10T00:28:09.281Z,17.10
2018-04-10T00:28:42.616Z,17.10
2018-04-10T00:29:16.140Z,17.10
2018-04-10T00:29:49.406Z,17.10
2018-04-10T00:30:22.675Z,17.10
2018-04-10T00:30:55.971Z,17.10
2018-04-10T00:31:29.243Z,17.10
2018-04-10T00:32:02.523Z,17.10
2018-04-10T00:32:35.823Z,17.10
2018-04-10T00:33:09.088Z,17.10
2018-04-10T00:33:42.356Z,17.10
2018-04-10T00:34:15.623Z,17.20
2018-04-10T00:34:48.894Z,17.10
2018-04-10T00:35:22.180Z,17.10
2018-04-10T00:35:55.451Z,17.10
2018-04-10T00:36:28.718Z,17.10
2018-04-10T00:37:02.752Z,17.10
2018-04-10T00:37:36.040Z,17.10
2018-04-10T00:38:10.080Z,17.00
2018-04-10T00:38:43.359Z,17.00
2018-04-10T00:39:16.632Z,17.00
2018-04-10T00:39:49.913Z,17.00
2018-04-10T00:40:23.190Z,16.90
2018-04-10T00:40:56.480Z,16.90
2018-04-10T00:41:29.796Z,16.90
2018-04-10T00:42:03.070Z,16.90
2018-04-10T00:42:36.358Z,16.90
2018-04-10T00:43:09.647Z,16.90
2018-04-10T00:43:42.924Z,16.90
2018-04-10T00:44:16.192Z,16.90
2018-04-10T00:44:49.471Z,16.90
2018-04-10T00:45:23.492Z,16.90
2018-04-10T00:45:56.764Z,16.90
2018-04-10T00:46:30.039Z,16.90
2018-04-10T00:47:04.086Z,16.90
2018-04-10T00:47:37.379Z,16.90
2018-04-10T00:48:10.660Z,16.90
2018-04-10T00:48:43.941Z,16.90
2018-04-10T00:49:17.238Z,16.90
2018-04-10T00:49:50.513Z,16.90
2018-04-10T00:50:24.548Z,16.80
2018-04-10T00:50:57.821Z,16.80
2018-04-10T00:51:31.090Z,16.80
2018-04-10T00:52:04.372Z,16.70
2018-04-10T00:52:37.683Z,16.70
2018-04-10T00:53:22.995Z,16.70
2018-04-10T00:53:56.272Z,16.60
2018-04-10T00:54:30.323Z,16.60
2018-04-10T00:55:03.607Z,16.60
2018-04-10T00:55:36.872Z,16.60
2018-04-10T00:56:10.920Z,16.60
2018-04-10T00:56:44.192Z,16.50
2018-04-10T00:57:17.472Z,16.60
2018-04-10T00:57:50.740Z,16.60
2018-04-10T00:58:24.041Z,16.50
2018-04-10T00:58:57.311Z,16.50
2018-04-10T00:59:30.595Z,16.50
2018-04-10T01:00:03.919Z,16.50
2018-04-10T01:00:37.192Z,16.50
2018-04-10T01:01:10.471Z,16.50
2018-04-10T01:01:44.003Z,16.40
2018-04-10T01:02:17.233Z,16.50
2018-04-10T01:02:50.519Z,16.50
2018-04-10T01:03:23.797Z,16.50
2018-04-10T01:03:57.073Z,16.50
2018-04-10T01:04:31.119Z,16.40
2018-04-10T01:05:04.399Z,16.40
2018-04-10T01:05:37.684Z,16.40
2018-04-10T01:06:11.708Z,16.40
2018-04-10T01:06:45.750Z,16.40
2018-04-10T01:07:19.023Z,16.40
2018-04-10T01:07:52.326Z,16.40
2018-04-10T01:08:25.588Z,16.40
2018-04-10T01:08:58.852Z,16.40
2018-04-10T01:09:32.120Z,16.40
2018-04-10T01:10:06.189Z,16.40
2018-04-10T01:10:39.471Z,16.40
2018-04-10T01:11:12.729Z,16.30
2018-04-10T01:11:45.992Z,16.30
2018-04-10T01:12:19.283Z,16.30
2018-04-10T01:12:52.564Z,16.20
2018-04-10T01:13:25.944Z,16.30
2018-04-10T01:13:59.204Z,16.30
2018-04-10T01:14:32.471Z,16.20
2018-04-10T01:15:05.752Z,16.30
2018-04-10T01:15:39.027Z,16.20
2018-04-10T01:16:13.070Z,16.20
2018-04-10T01:16:46.348Z,16.20
2018-04-10T01:17:19.628Z,16.20
2018-04-10T01:17:52.898Z,16.10
2018-04-10T01:18:26.197Z,16.20
2018-04-10T01:18:59.481Z,16.20
2018-04-10T01:19:32.740Z,16.20
2018-04-10T01:20:06.783Z,16.20
2018-04-10T01:20:40.052Z,16.20
2018-04-10T01:21:13.321Z,16.10
2018-04-10T01:21:46.599Z,16.20
2018-04-10T01:22:19.867Z,16.10
2018-04-10T01:22:53.160Z,16.20
2018-04-10T01:23:26.420Z,16.10
2018-04-10T01:23:59.683Z,16.10
2018-04-10T01:24:32.963Z,16.10
2018-04-10T01:25:06.244Z,16.10
2018-04-10T01:25:39.511Z,16.10
2018-04-10T01:26:12.783Z,16.10
2018-04-10T01:26:46.051Z,16.10
2018-04-10T01:27:20.087Z,16.10
2018-04-10T01:27:53.368Z,16.00
2018-04-10T01:28:26.652Z,16.10
2018-04-10T01:28:59.927Z,16.00
2018-04-10T01:29:33.197Z,16.10
2018-04-10T01:30:06.487Z,16.00
2018-04-10T01:30:39.847Z,16.00
2018-04-10T01:31:13.138Z,16.10
2018-04-10T01:31:46.403Z,16.10
2018-04-10T01:32:19.692Z,16.10
2018-04-10T01:32:52.967Z,16.10
2018-04-10T01:33:26.259Z,16.10
2018-04-10T01:33:59.527Z,16.10
2018-04-10T01:34:33.001Z,16.10
2018-04-10T01:35:07.048Z,16.10
2018-04-10T01:35:40.316Z,16.10
2018-04-10T01:36:13.591Z,16.10
2018-04-10T01:36:46.868Z,16.10
2018-04-10T01:37:20.138Z,16.10
2018-04-10T01:37:53.412Z,16.10
2018-04-10T01:38:26.696Z,16.00
2018-04-10T01:38:59.975Z,16.00
2018-04-10T01:39:33.376Z,16.00
2018-04-10T01:40:06.636Z,16.00
2018-04-10T01:40:40.676Z,16.00
2018-04-10T01:41:13.930Z,16.00
2018-04-10T01:41:47.207Z,16.00
2018-04-10T01:42:20.491Z,16.00
2018-04-10T01:42:53.767Z,16.00
2018-04-10T01:43:27.054Z,16.00
2018-04-10T01:44:00.319Z,16.00
2018-04-10T01:44:33.604Z,16.00
2018-04-10T01:45:06.880Z,15.90
2018-04-10T01:45:40.183Z,15.90
2018-04-10T01:46:13.460Z,15.90
2018-04-10T01:46:46.758Z,15.90
2018-04-10T01:47:20.018Z,15.90
2018-04-10T01:47:54.073Z,15.90
2018-04-10T01:48:27.357Z,15.90
2018-04-10T01:49:01.394Z,15.90
2018-04-10T01:49:34.652Z,15.90
2018-04-10T01:50:07.927Z,15.90
2018-04-10T01:50:41.199Z,15.90
2018-04-10T01:51:14.480Z,16.00
2018-04-10T01:51:48.520Z,15.90
2018-04-10T01:52:21.811Z,15.90
2018-04-10T01:52:55.088Z,15.90
2018-04-10T01:53:28.384Z,15.90
2018-04-10T01:54:01.677Z,15.80
2018-04-10T01:54:34.936Z,15.90
2018-04-10T01:55:08.212Z,15.80
2018-04-10T01:55:41.504Z,15.80
2018-04-10T01:56:14.767Z,15.80
2018-04-10T01:56:48.053Z,15.70
2018-04-10T01:57:21.320Z,15.80
2018-04-10T01:57:54.587Z,15.70
2018-04-10T01:58:27.871Z,15.70
2018-04-10T01:59:01.269Z,15.70
2018-04-10T01:59:34.559Z,15.80
2018-04-10T02:00:07.827Z,15.80
2018-04-10T02:00:41.108Z,15.70
2018-04-10T02:01:14.376Z,15.70
2018-04-10T02:01:47.661Z,15.70
2018-04-10T02:02:20.939Z,15.80
2018-04-10T02:02:54.200Z,15.70
2018-04-10T02:03:27.484Z,15.80
2018-04-10T02:04:00.896Z,15.80
2018-04-10T02:04:34.387Z,15.80
2018-04-10T02:05:07.659Z,15.80
2018-04-10T02:05:40.927Z,15.70
2018-04-10T02:06:14.211Z,15.80
2018-04-10T02:06:47.473Z,15.70
2018-04-10T02:07:20.735Z,15.70
2018-04-10T02:07:54.773Z,15.70
2018-04-10T02:08:28.062Z,15.70
2018-04-10T02:09:01.339Z,15.70
2018-04-10T02:09:34.615Z,15.70
2018-04-10T02:10:07.886Z,15.60
2018-04-10T02:10:41.152Z,15.70
2018-04-10T02:11:14.420Z,15.60
2018-04-10T02:11:47.702Z,15.60
2018-04-10T02:12:20.968Z,15.70
2018-04-10T02:12:55.015Z,15.60
2018-04-10T02:13:28.289Z,15.60
2018-04-10T02:14:01.676Z,15.60
2018-04-10T02:14:34.953Z,15.60
2018-04-10T02:15:08.219Z,15.60
2018-04-10T02:15:41.492Z,15.60
2018-04-10T02:16:14.789Z,15.60
2018-04-10T02:16:48.043Z,15.60
2018-04-10T02:17:21.339Z,15.60
2018-04-10T02:17:54.780Z,15.60
2018-04-10T02:18:28.051Z,15.60
2018-04-10T02:19:01.344Z,15.60
2018-04-10T02:19:34.624Z,15.60
2018-04-10T02:20:07.913Z,15.50
2018-04-10T02:20:41.954Z,15.50
2018-04-10T02:21:15.231Z,15.50
2018-04-10T02:21:48.499Z,15.50
2018-04-10T02:22:21.774Z,15.50
2018-04-10T02:22:55.073Z,15.60
2018-04-10T02:23:28.343Z,15.50
2018-04-10T02:24:01.621Z,15.50
2018-04-10T02:24:35.047Z,15.50
2018-04-10T02:25:08.367Z,15.50
2018-04-10T02:25:42.349Z,15.50
2018-04-10T02:26:16.399Z,15.50
2018-04-10T02:26:49.755Z,15.50
2018-04-10T02:27:23.145Z,15.50
2018-04-10T02:27:56.403Z,15.50
2018-04-10T02:28:29.684Z,15.50
2018-04-10T02:29:03.726Z,15.50
2018-04-10T02:29:37.012Z,15.50
2018-04-10T02:30:10.279Z,15.50
2018-04-10T02:30:43.539Z,15.40
2018-04-10T02:31:16.817Z,15.50
2018-04-10T02:31:50.092Z,15.40
2018-04-10T02:32:23.374Z,15.50
2018-04-10T02:32:56.642Z,15.50
2018-04-10T02:33:30.688Z,15.50
2018-04-10T02:34:03.972Z,15.40
2018-04-10T02:34:37.581Z,15.40
2018-04-10T02:35:10.856Z,15.40
2018-04-10T02:35:44.905Z,15.40
2018-04-10T02:36:18.174Z,15.40
2018-04-10T02:36:51.469Z,15.40
2018-04-10T02:37:24.740Z,15.40
2018-04-10T02:37:58.132Z,15.40
2018-04-10T02:38:31.419Z,15.40
2018-04-10T02:39:04.803Z,15.40
2018-04-10T02:39:38.085Z,15.40
2018-04-10T02:40:11.376Z,15.40
2018-04-10T02:40:44.641Z,15.40
2018-04-10T02:41:17.931Z,15.40
2018-04-10T02:41:51.228Z,15.40
2018-04-10T02:42:24.491Z,15.40
2018-04-10T02:42:57.767Z,15.40
2018-04-10T02:43:31.053Z,15.40
2018-04-10T02:44:04.324Z,15.30
2018-04-10T02:44:37.597Z,15.30
2018-04-10T02:45:10.879Z,15.30
2018-04-10T02:45:44.150Z,15.40
2018-04-10T02:46:17.418Z,15.30
2018-04-10T02:46:50.684Z,15.30
2018-04-10T02:47:24.724Z,15.30
2018-04-10T02:47:58.001Z,15.30
2018-04-10T02:48:31.272Z,15.30
2018-04-10T02:49:04.544Z,15.30
2018-04-10T02:49:37.820Z,15.30
2018-04-10T02:50:11.100Z,15.30
2018-04-10T02:50:44.378Z,15.30
2018-04-10T02:51:18.409Z,15.30
2018-04-10T02:51:51.679Z,15.30
2018-04-10T02:52:24.942Z,15.20
2018-04-10T02:52:58.208Z,15.20
2018-04-10T02:53:32.240Z,15.20
2018-04-10T02:54:05.504Z,15.20
2018-04-10T02:54:38.774Z,15.30
2018-04-10T02:55:12.058Z,15.30
2018-04-10T02:55:45.336Z,15.20
2018-04-10T02:56:18.618Z,15.20
2018-04-10T02:56:52.680Z,15.20
2018-04-10T02:57:25.960Z,15.10
2018-04-10T02:57:59.239Z,15.20
2018-04-10T02:58:32.570Z,15.20
2018-04-10T02:59:05.840Z,15.10
2018-04-10T02:59:39.106Z,15.10
2018-04-10T03:00:13.174Z,15.10
2018-04-10T03:00:46.451Z,15.10
2018-04-10T03:01:19.733Z,15.10
2018-04-10T03:01:53.009Z,15.10
2018-04-10T03:02:26.589Z,15.10
2018-04-10T03:02:59.880Z,15.00
2018-04-10T03:03:33.140Z,15.00
2018-04-10T03:04:06.416Z,15.00
2018-04-10T03:04:39.684Z,15.10
2018-04-10T03:05:12.976Z,15.10
2018-04-10T03:05:46.247Z,15.10
2018-04-10T03:06:19.528Z,15.10
2018-04-10T03:06:52.804Z,15.00
2018-04-10T03:07:26.088Z,15.00
2018-04-10T03:07:59.353Z,15.00
2018-04-10T03:08:32.621Z,15.00
2018-04-10T03:09:06.657Z,15.00
2018-04-10T03:09:39.933Z,15.00
2018-04-10T03:10:13.208Z,15.00
2018-04-10T03:10:46.499Z,15.00
2018-04-10T03:11:19.788Z,15.00
2018-04-10T03:11:53.048Z,15.00
2018-04-10T03:12:26.321Z,15.00
2018-04-10T03:12:59.601Z,15.00
2018-04-10T03:13:32.868Z,15.00
2018-04-10T03:14:06.145Z,15.00
2018-04-10T03:14:40.171Z,15.00
2018-04-10T03:15:13.439Z,15.00
2018-04-10T03:15:46.741Z,15.00
2018-04-10T03:16:20.016Z,15.00
2018-04-10T03:16:53.282Z,15.00
2018-04-10T03:17:26.563Z,15.00
2018-04-10T03:17:59.838Z,15.00
2018-04-10T03:18:33.127Z,15.00
2018-04-10T03:19:06.408Z,15.00
2018-04-10T03:19:39.673Z,15.00
2018-04-10T03:20:12.956Z,15.00
2018-04-10T03:20:46.252Z,14.90
2018-04-10T03:21:19.504Z,14.90
2018-04-10T03:21:52.775Z,14.90
2018-04-10T03:22:26.824Z,14.90
2018-04-10T03:23:00.092Z,14.90
2018-04-10T03:23:33.365Z,14.90
2018-04-10T03:24:06.638Z,14.90
2018-04-10T03:24:39.911Z,14.90
2018-04-10T03:25:13.187Z,14.90
2018-04-10T03:25:46.472Z,14.90
2018-04-10T03:26:19.749Z,14.90
2018-04-10T03:26:53.017Z,14.90
2018-04-10T03:27:27.059Z,14.80
2018-04-10T03:28:00.327Z,14.80
2018-04-10T03:28:33.600Z,14.80
2018-04-10T03:29:06.863Z,14.80
2018-04-10T03:29:40.151Z,14.80
2018-04-10T03:30:13.428Z,14.80
2018-04-10T03:30:46.725Z,14.80
2018-04-10T03:31:20.018Z,14.80
2018-04-10T03:31:53.279Z,14.80
2018-04-10T03:32:26.795Z,14.90
2018-04-10T03:33:00.067Z,14.90
2018-04-10T03:33:33.341Z,14.80
2018-04-10T03:34:06.600Z,14.80
2018-04-10T03:34:39.874Z,14.80
2018-04-10T03:35:13.141Z,14.80
2018-04-10T03:35:47.193Z,14.80
2018-04-10T03:36:20.500Z,14.80
2018-04-10T03:36:53.770Z,14.80
2018-04-10T03:37:27.041Z,14.80
2018-04-10T03:38:00.304Z,14.90
2018-04-10T03:38:33.570Z,14.90
2018-04-10T03:39:07.775Z,14.90
2018-04-10T03:39:41.056Z,14.90
2018-04-10T03:40:14.339Z,14.90
2018-04-10T03:40:47.619Z,14.90
2018-04-10T03:41:20.913Z,14.90
2018-04-10T03:41:54.184Z,14.90
2018-04-10T03:42:27.466Z,14.80
2018-04-10T03:43:00.723Z,14.80
2018-04-10T03:43:33.993Z,14.80
2018-04-10T03:44:07.265Z,14.90
2018-04-10T03:44:41.304Z,14.90
2018-04-10T03:45:14.573Z,14.80
2018-04-10T03:45:47.840Z,14.80
2018-04-10T03:46:21.138Z,14.90
2018-04-10T03:46:54.417Z,14.80
2018-04-10T03:47:27.691Z,14.90
2018-04-10T03:48:00.959Z,14.90
2018-04-10T03:48:34.232Z,14.80
2018-04-10T03:49:07.524Z,14.90
2018-04-10T03:49:40.782Z,14.90
2018-04-10T03:50:14.063Z,14.90
2018-04-10T03:50:48.100Z,14.90
2018-04-10T03:51:21.383Z,14.90
2018-04-10T03:51:54.677Z,14.90
2018-04-10T03:52:27.940Z,14.90
2018-04-10T03:53:01.230Z,14.90
2018-04-10T03:53:34.495Z,14.90
2018-04-10T03:54:07.780Z,14.90
2018-04-10T03:54:41.056Z,14.90
2018-04-10T03:55:14.335Z,15.00
2018-04-10T03:55:48.407Z,15.00
2018-04-10T03:56:22.435Z,14.90
2018-04-10T03:56:55.727Z,14.90
2018-04-10T03:57:29.001Z,14.90
2018-04-10T03:58:02.267Z,14.90
2018-04-10T03:58:35.532Z,14.90
2018-04-10T03:59:08.804Z,14.90
2018-04-10T03:59:42.089Z,14.90
2018-04-10T04:00:15.360Z,14.80
2018-04-10T04:00:48.647Z,14.90
2018-04-10T04:01:21.917Z,14.90
2018-04-10T04:01:55.972Z,14.90
2018-04-10T04:02:29.332Z,14.90
2018-04-10T04:03:02.607Z,14.90
2018-04-10T04:03:35.873Z,14.90
2018-04-10T04:04:09.151Z,14.90
2018-04-10T04:04:42.420Z,14.90
2018-04-10T04:05:15.698Z,14.80
2018-04-10T04:05:48.954Z,14.80
2018-04-10T04:06:22.233Z,14.80
2018-04-10T04:06:55.588Z,14.80
2018-04-10T04:07:28.880Z,14.80
2018-04-10T04:08:02.456Z,14.80
2018-04-10T04:08:35.744Z,14.80
2018-04-10T04:09:09.020Z,14.80
2018-04-10T04:09:42.291Z,14.80
2018-04-10T04:10:15.598Z,14.80
2018-04-10T04:10:48.875Z,14.80
2018-04-10T04:11:22.154Z,14.80
2018-04-10T04:11:55.454Z,14.80
2018-04-10T04:12:29.507Z,14.80
2018-04-10T04:13:02.759Z,14.80
2018-04-10T04:13:36.048Z,14.80
2018-04-10T04:14:09.344Z,14.90
2018-04-10T04:14:42.725Z,14.80
2018-04-10T04:15:15.984Z,14.80
2018-04-10T04:15:49.249Z,14.80
2018-04-10T04:16:35.209Z,14.80
2018-04-10T04:17:20.373Z,14.80
2018-04-10T04:17:54.411Z,14.90
2018-04-10T04:18:39.604Z,14.90
2018-04-10T04:19:24.918Z,14.90
2018-04-10T04:20:10.748Z,15.00
2018-04-10T04:20:55.828Z,15.00
2018-04-10T04:21:42.090Z,15.00
2018-04-10T04:22:27.151Z,15.00
2018-04-10T04:23:00.426Z,15.00
2018-04-10T04:23:33.703Z,15.00
2018-04-10T04:24:06.986Z,15.00
2018-04-10T04:24:40.252Z,15.00
2018-04-10T04:25:14.288Z,14.90
2018-04-10T04:25:48.326Z,15.00
2018-04-10T04:26:21.591Z,15.00
2018-04-10T04:26:54.852Z,15.00
2018-04-10T04:27:28.903Z,15.00
2018-04-10T04:28:02.180Z,15.00
2018-04-10T04:28:35.459Z,15.00
2018-04-10T04:29:08.727Z,15.00
2018-04-10T04:29:41.995Z,15.00
2018-04-10T04:30:15.268Z,15.00
2018-04-10T04:30:48.543Z,15.00
2018-04-10T04:31:21.812Z,15.10
2018-04-10T04:31:55.121Z,15.00
2018-04-10T04:32:29.143Z,15.00
2018-04-10T04:33:02.415Z,15.00
2018-04-10T04:33:35.691Z,15.00
2018-04-10T04:34:08.961Z,15.00
2018-04-10T04:34:42.246Z,15.00
2018-04-10T04:35:15.528Z,15.00
2018-04-10T04:35:48.798Z,15.00
2018-04-10T04:36:22.059Z,15.10
2018-04-10T04:36:55.331Z,15.00
2018-04-10T04:37:28.620Z,15.00
2018-04-10T04:38:01.881Z,15.10
2018-04-10T04:38:35.927Z,15.10
2018-04-10T04:39:09.190Z,15.10
2018-04-10T04:39:42.473Z,15.10
2018-04-10T04:40:15.739Z,15.10
2018-04-10T04:40:49.032Z,15.10
2018-04-10T04:41:22.315Z,15.10
2018-04-10T04:41:55.588Z,15.10
2018-04-10T04:42:28.992Z,15.10
2018-04-10T04:43:02.267Z,15.10
2018-04-10T04:43:35.570Z,15.20
2018-04-10T04:44:08.840Z,15.20
2018-04-10T04:44:42.104Z,15.20
2018-04-10T04:45:15.387Z,15.20
2018-04-10T04:45:48.654Z,15.20
2018-04-10T04:46:21.923Z,15.10
2018-04-10T04:46:55.962Z,15.10
2018-04-10T04:47:29.261Z,15.10
2018-04-10T04:48:02.537Z,15.10
2018-04-10T04:48:35.812Z,15.10
2018-04-10T04:49:09.101Z,15.10
2018-04-10T04:49:42.374Z,15.10
2018-04-10T04:50:15.663Z,15.10
2018-04-10T04:50:48.942Z,15.10
2018-04-10T04:51:22.232Z,15.10
2018-04-10T04:51:55.512Z,15.10
2018-04-10T04:52:28.780Z,15.10
2018-04-10T04:53:02.073Z,15.10
2018-04-10T04:53:35.340Z,15.10
2018-04-10T04:54:08.611Z,15.10
2018-04-10T04:54:41.903Z,15.10
2018-04-10T04:55:15.168Z,15.10
2018-04-10T04:55:48.439Z,15.10
2018-04-10T04:56:21.716Z,15.10
2018-04-10T04:56:55.024Z,15.00
2018-04-10T04:57:28.318Z,15.00
2018-04-10T04:58:01.594Z,15.10
2018-04-10T04:58:34.867Z,15.10
2018-04-10T04:59:08.140Z,15.10
2018-04-10T04:59:42.161Z,15.10
2018-04-10T05:00:16.194Z,15.10
2018-04-10T05:00:49.480Z,15.10
2018-04-10T05:01:22.747Z,15.10
2018-04-10T05:01:56.802Z,15.10
2018-04-10T05:02:30.075Z,15.10
2018-04-10T05:03:03.355Z,15.10
2018-04-10T05:03:36.641Z,15.10
2018-04-10T05:04:09.927Z,15.10
2018-04-10T05:04:44.699Z,15.10
2018-04-10T05:05:17.976Z,15.10
2018-04-10T05:05:51.250Z,15.10
2018-04-10T05:06:24.540Z,15.10
2018-04-10T05:06:57.808Z,15.10
2018-04-10T05:07:31.083Z,15.10
2018-04-10T05:08:04.393Z,15.10
2018-04-10T05:08:37.661Z,15.20
2018-04-10T05:09:10.931Z,15.20
2018-04-10T05:09:44.213Z,15.20
2018-04-10T05:10:17.499Z,15.20
2018-04-10T05:10:50.776Z,15.20
2018-04-10T05:11:24.038Z,15.20
2018-04-10T05:11:57.310Z,15.20
2018-04-10T05:12:30.579Z,15.20
2018-04-10T05:13:04.616Z,15.10
2018-04-10T05:13:38.660Z,15.20
2018-04-10T05:14:11.940Z,15.20
2018-04-10T05:14:45.240Z,15.20
2018-04-10T05:15:19.301Z,15.20
2018-04-10T05:15:53.352Z,15.20
2018-04-10T05:16:27.376Z,15.20
2018-04-10T05:17:00.643Z,15.20
2018-04-10T05:17:33.904Z,15.20
2018-04-10T05:18:07.175Z,15.10
2018-04-10T05:18:40.483Z,15.10
2018-04-10T05:19:13.765Z,15.10
2018-04-10T05:19:47.044Z,15.20
2018-04-10T05:20:20.337Z,15.10
2018-04-10T05:20:53.599Z,15.10
2018-04-10T05:21:26.883Z,15.10
2018-04-10T05:22:00.151Z,15.20
2018-04-10T05:22:33.547Z,15.20
2018-04-10T05:23:06.936Z,15.20
2018-04-10T05:23:40.205Z,15.20
2018-04-10T05:24:13.501Z,15.10
2018-04-10T05:24:46.767Z,15.10
2018-04-10T05:25:20.051Z,15.10
2018-04-10T05:25:53.337Z,15.20
2018-04-10T05:26:26.616Z,15.20
2018-04-10T05:26:59.887Z,15.10
2018-04-10T05:27:33.147Z,15.20
2018-04-10T05:28:06.685Z,15.20
2018-04-10T05:28:39.973Z,15.20
2018-04-10T05:29:13.253Z,15.10
2018-04-10T05:29:46.523Z,15.10
2018-04-10T05:30:19.803Z,15.20
2018-04-10T05:30:53.085Z,15.20
2018-04-10T05:31:26.355Z,15.20
2018-04-10T05:31:59.640Z,15.20
2018-04-10T05:32:32.912Z,15.20
2018-04-10T05:33:06.182Z,15.20
2018-04-10T05:33:39.454Z,15.20
2018-04-10T05:34:12.782Z,15.20
2018-04-10T05:34:46.061Z,15.10
2018-04-10T05:35:19.330Z,15.10
2018-04-10T05:35:52.615Z,15.10
2018-04-10T05:36:25.898Z,15.10
2018-04-10T05:36:59.161Z,15.10
2018-04-10T05:37:32.461Z,15.10
2018-04-10T05:38:05.734Z,15.10
2018-04-10T05:38:39.011Z,15.20
2018-04-10T05:39:12.359Z,15.20
2018-04-10T05:39:45.669Z,15.20
2018-04-10T05:40:18.948Z,15.30
2018-04-10T05:40:52.220Z,15.30
2018-04-10T05:41:25.492Z,15.30
2018-04-10T05:41:58.756Z,15.30
2018-04-10T05:42:32.038Z,15.30
2018-04-10T05:43:05.322Z,15.30
2018-04-10T05:43:38.595Z,15.30
2018-04-10T05:44:11.871Z,15.30
2018-04-10T05:44:45.177Z,15.30
2018-04-10T05:45:18.448Z,15.30
2018-04-10T05:45:51.717Z,15.30
2018-04-10T05:46:24.980Z,15.30
2018-04-10T05:46:58.265Z,15.30
2018-04-10T05:47:31.527Z,15.30
2018-04-10T05:48:04.804Z,15.30
2018-04-10T05:48:38.841Z,15.30
2018-04-10T05:49:12.103Z,15.30
2018-04-10T05:49:45.396Z,15.30
2018-04-10T05:50:18.668Z,15.30
2018-04-10T05:50:51.948Z,15.40
2018-04-10T05:51:25.236Z,15.40
2018-04-10T05:51:58.515Z,15.40
2018-04-10T05:52:31.775Z,15.40
2018-04-10T05:53:05.040Z,15.40
2018-04-10T05:53:39.075Z,15.40
2018-04-10T05:54:12.444Z,15.40
2018-04-10T05:54:45.734Z,15.40
2018-04-10T05:55:19.021Z,15.40
2018-04-10T05:55:52.294Z,15.50
2018-04-10T05:56:25.569Z,15.50
2018-04-10T05:56:58.841Z,15.40
2018-04-10T05:57:32.120Z,15.50
2018-04-10T05:58:05.386Z,15.50
2018-04-10T05:58:38.666Z,15.50
2018-04-10T05:59:11.949Z,15.50
2018-04-10T05:59:45.244Z,15.50
2018-04-10T06:00:18.529Z,15.50
2018-04-10T06:00:51.796Z,15.50
2018-04-10T06:01:25.839Z,15.50
2018-04-10T06:01:59.204Z,15.50
2018-04-10T06:02:32.481Z,15.50
2018-04-10T06:03:05.776Z,15.50
2018-04-10T06:03:39.032Z,15.50
2018-04-10T06:04:12.341Z,15.50
2018-04-10T06:04:45.608Z,15.50
2018-04-10T06:05:18.892Z,15.60
2018-04-10T06:05:52.180Z,15.60
2018-04-10T06:06:26.213Z,15.60
2018-04-10T06:06:59.501Z,15.60
2018-04-10T06:07:32.829Z,15.60
2018-04-10T06:08:06.103Z,15.60
2018-04-10T06:08:39.376Z,15.60
2018-04-10T06:09:12.648Z,15.60
2018-04-10T06:09:45.920Z,15.60
2018-04-10T06:10:19.220Z,15.60
2018-04-10T06:10:52.490Z,15.60
2018-04-10T06:11:25.772Z,15.60
2018-04-10T06:11:59.053Z,15.70
2018-04-10T06:12:32.344Z,15.60
2018-04-10T06:13:05.603Z,15.60
2018-04-10T06:13:38.877Z,15.70
2018-04-10T06:14:12.152Z,15.70
2018-04-10T06:14:46.197Z,15.70
2018-04-10T06:15:19.487Z,15.60
2018-04-10T06:15:52.802Z,15.70
2018-04-10T06:16:26.059Z,15.70
2018-04-10T06:16:59.332Z,15.70
2018-04-10T06:17:32.671Z,15.70
2018-04-10T06:18:06.712Z,15.70
2018-04-10T06:18:39.971Z,15.70
2018-04-10T06:19:13.261Z,15.70
2018-04-10T06:19:46.555Z,15.80
2018-04-10T06:20:19.827Z,15.80
2018-04-10T06:20:53.099Z,15.80
2018-04-10T06:21:26.427Z,15.80
2018-04-10T06:21:59.664Z,15.70
2018-04-10T06:22:32.958Z,15.70
2018-04-10T06:23:06.220Z,15.70
2018-04-10T06:23:39.497Z,15.70
2018-04-10T06:24:12.757Z,15.70
2018-04-10T06:24:46.028Z,15.70
2018-04-10T06:25:19.329Z,15.70
2018-04-10T06:25:52.611Z,15.70
2018-04-10T06:26:25.880Z,15.70
2018-04-10T06:26:59.161Z,15.60
2018-04-10T06:27:32.415Z,15.60
2018-04-10T06:28:06.460Z,15.60
2018-04-10T06:28:39.737Z,15.60
2018-04-10T06:29:13.024Z,15.60
2018-04-10T06:29:46.288Z,15.60
2018-04-10T06:30:19.572Z,15.60
2018-04-10T06:30:52.864Z,15.60
2018-04-10T06:31:26.148Z,15.60
2018-04-10T06:31:59.407Z,15.60
2018-04-10T06:32:32.683Z,15.60
2018-04-10T06:33:05.969Z,15.60
2018-04-10T06:33:39.240Z,15.60
2018-04-10T06:34:12.516Z,15.60
2018-04-10T06:34:45.795Z,15.60
2018-04-10T06:35:19.088Z,15.60
2018-04-10T06:35:52.379Z,15.60
2018-04-10T06:36:25.658Z,15.60
2018-04-10T06:36:58.925Z,15.50
2018-04-10T06:37:32.188Z,15.60
2018-04-10T06:38:05.467Z,15.60
2018-04-10T06:38:38.735Z,15.60
2018-04-10T06:39:12.767Z,15.70
2018-04-10T06:39:46.046Z,15.70
2018-04-10T06:40:19.327Z,15.70
2018-04-10T06:40:52.603Z,15.70
2018-04-10T06:41:25.982Z,15.80
2018-04-10T06:41:59.257Z,15.80
2018-04-10T06:42:32.527Z,15.80
2018-04-10T06:43:05.792Z,15.80
2018-04-10T06:43:39.827Z,15.90
2018-04-10T06:44:13.100Z,15.80
2018-04-10T06:44:46.376Z,15.90
2018-04-10T06:45:19.646Z,15.80
2018-04-10T06:45:52.944Z,15.90
2018-04-10T06:46:26.232Z,15.90
2018-04-10T06:46:59.501Z,15.80
2018-04-10T06:47:32.782Z,15.90
2018-04-10T06:48:06.054Z,15.90
2018-04-10T06:48:39.324Z,15.90
2018-04-10T06:49:12.612Z,15.90
2018-04-10T06:49:45.888Z,15.80
2018-04-10T06:50:19.175Z,15.80
2018-04-10T06:50:52.459Z,15.90
2018-04-10T06:51:25.761Z,15.90
2018-04-10T06:51:59.774Z,15.80
2018-04-10T06:52:33.055Z,15.80
2018-04-10T06:53:06.312Z,15.80
2018-04-10T06:53:39.600Z,15.80
2018-04-10T06:54:12.876Z,15.90
2018-04-10T06:54:46.160Z,15.90
2018-04-10T06:55:19.428Z,15.90
2018-04-10T06:55:52.699Z,15.90
2018-04-10T06:56:25.986Z,15.90
2018-04-10T06:56:59.273Z,15.90
2018-04-10T06:57:32.548Z,15.80
2018-04-10T06:58:05.829Z,15.90
2018-04-10T06:58:39.104Z,16.00
2018-04-10T06:59:12.472Z,16.10
2018-04-10T06:59:45.759Z,16.10
2018-04-10T07:00:19.028Z,16.10
2018-04-10T07:00:52.296Z,16.00
2018-04-10T07:01:25.580Z,16.00
2018-04-10T07:01:59.613Z,16.00
2018-04-10T07:02:32.889Z,16.00
2018-04-10T07:03:06.168Z,15.90
2018-04-10T07:03:39.464Z,15.90
2018-04-10T07:04:13.500Z,15.90
2018-04-10T07:04:46.768Z,15.90
2018-04-10T07:05:20.060Z,15.90
2018-04-10T07:05:53.339Z,15.90
2018-04-10T07:06:26.646Z,15.90
2018-04-10T07:06:59.926Z,16.00
2018-04-10T07:07:33.211Z,16.10
2018-04-10T07:08:06.497Z,16.10
2018-04-10T07:08:39.771Z,16.10
2018-04-10T07:09:13.059Z,16.10
2018-04-10T07:09:46.344Z,16.10
2018-04-10T07:10:19.609Z,16.10
2018-04-10T07:10:52.899Z,16.10
2018-04-10T07:11:26.186Z,16.20